Time;durP1;ratioP1;P1;durP2;ratioP2;P2;SDS_P1;SDS_P2;PMS_P1;PMS_P2;Temp;Humidity;BMP_temperature;BMP_pressure;BME280_temperature;BME280_humidity;BME280_pressure;Samples;Min_cycle;Max_cycle;Signal;HPM_P1;HPM_P2
2021/07/15 00:01:28;;;;;;;;;;;25.80;99.90;;;;;;1844848;76;20220;-80
2021/07/15 00:03:58;;;;;;;;;;;25.80;99.90;;;;;;1842592;77;20289;-78
2021/07/15 00:06:29;;;;;;;;;;;25.80;99.90;;;;;;1842709;77;20194;-84
2021/07/15 00:08:58;;;;;;;;;;;25.80;99.90;;;;;;1841484;76;20175;-83
2021/07/15 00:11:30;;;;;;;;;;;25.80;99.90;;;;;;1832393;77;20172;-84
2021/07/15 00:14:06;;;;;;;;;;;25.70;99.90;;;;;;1835703;77;20145;-82
2021/07/15 00:16:45;;;;;;;;;;;25.70;99.90;;;;;;1902378;73;20257;-82
2021/07/15 00:19:18;;;;;;;;;;;25.70;99.90;;;;;;1905598;73;20211;-82
2021/07/15 00:21:47;;;;;;;;;;;25.70;99.90;;;;;;1904551;73;20190;-81
2021/07/15 00:24:19;;;;;;;;;;;25.70;99.90;;;;;;1901822;75;20172;-81
2021/07/15 00:26:50;;;;;;;;;;;25.70;99.90;;;;;;1762987;80;20247;-81
2021/07/15 00:29:20;;;;;;;;;;;25.60;99.90;;;;;;1766535;80;20257;-81
2021/07/15 00:31:50;;;;;;;;;;;25.60;99.90;;;;;;1762845;80;20354;-82
2021/07/15 00:34:20;;;;;;;;;;;25.70;99.90;;;;;;1763933;80;20243;-82
2021/07/15 00:36:50;;;;;;;;;;;25.70;99.90;;;;;;1765827;80;20292;-80
2021/07/15 00:39:20;;;;;;;;;;;25.60;99.90;;;;;;1765846;80;20464;-81
2021/07/15 00:41:49;;;;;;;;;;;25.70;99.90;;;;;;1765914;80;20251;-82
2021/07/15 00:44:19;;;;;;;;;;;25.70;99.90;;;;;;1766642;81;20277;-81
2021/07/15 00:46:49;;;;;;;;;;;25.60;99.90;;;;;;1765139;78;20269;-81
2021/07/15 00:49:19;;;;;;;;;;;25.60;99.90;;;;;;1764670;81;20197;-82
2021/07/15 00:51:48;;;;;;;;;;;25.60;99.90;;;;;;1814550;77;20252;-82
2021/07/15 00:54:18;;;;;;;;;;;25.60;99.90;;;;;;1850063;77;20185;-81
2021/07/15 00:56:48;;;;;;;;;;;25.60;99.90;;;;;;1849557;76;20236;-82
2021/07/15 00:59:20;;;;;;;;;;;25.50;99.90;;;;;;1843576;76;20191;-81
2021/07/15 01:01:49;;;;;;;;;;;25.50;99.90;;;;;;1848593;77;20216;-80
2021/07/15 01:04:22;;;;;;;;;;;25.50;99.90;;;;;;1864330;75;20261;-81
2021/07/15 01:06:52;;;;;;;;;;;25.50;99.90;;;;;;1902245;74;20451;-81
2021/07/15 01:09:24;;;;;;;;;;;25.50;99.90;;;;;;1901118;73;20422;-80
2021/07/15 01:11:55;;;;;;;;;;;25.50;99.90;;;;;;1907774;75;20179;-81
2021/07/15 01:14:26;;;;;;;;;;;25.60;99.90;;;;;;1916577;74;20247;-81
2021/07/15 01:16:57;;;;;;;;;;;25.60;99.90;;;;;;1906634;75;20415;-81
2021/07/15 01:19:28;;;;;;;;;;;25.70;99.90;;;;;;1902329;74;20178;-81
2021/07/15 01:21:59;;;;;;;;;;;25.60;99.90;;;;;;1909749;74;20220;-82
2021/07/15 01:24:30;;;;;;;;;;;25.70;99.90;;;;;;1907637;75;20171;-81
2021/07/15 01:27:01;;;;;;;;;;;25.70;99.90;;;;;;1905274;74;20250;-81
2021/07/15 01:29:32;;;;;;;;;;;25.80;99.90;;;;;;1898519;74;20265;-83
2021/07/15 01:32:02;;;;;;;;;;;25.80;99.90;;;;;;1906146;75;20280;-82
2021/07/15 01:34:33;;;;;;;;;;;25.90;99.90;;;;;;1903863;73;20136;-81
2021/07/15 01:37:03;;;;;;;;;;;25.80;99.90;;;;;;1904958;74;20199;-82
2021/07/15 01:39:34;;;;;;;;;;;25.90;99.90;;;;;;1905214;73;20269;-81
2021/07/15 01:42:05;;;;;;;;;;;26.00;99.90;;;;;;1870948;76;20231;-81
2021/07/15 01:44:36;;;;;;;;;;;26.00;99.90;;;;;;1850208;77;20160;-81
2021/07/15 01:47:06;;;;;;;;;;;26.10;99.90;;;;;;1841537;77;20238;-81
2021/07/15 01:49:35;;;;;;;;;;;26.10;99.90;;;;;;1842947;77;20187;-81
2021/07/15 01:52:05;;;;;;;;;;;26.10;99.90;;;;;;1844242;77;20215;-82
2021/07/15 01:54:36;;;;;;;;;;;26.10;99.90;;;;;;1839650;77;20138;-82
2021/07/15 01:57:12;;;;;;;;;;;26.20;99.90;;;;;;1843139;77;20185;-82
2021/07/15 01:59:44;;;;;;;;;;;26.20;99.90;;;;;;1830821;77;20203;-82
2021/07/15 02:02:14;;;;;;;;;;;26.30;99.90;;;;;;1837676;77;20202;-81
2021/07/15 02:04:44;;;;;;;;;;;26.30;99.90;;;;;;1861895;76;20450;-81
2021/07/15 02:07:15;;;;;;;;;;;26.40;99.90;;;;;;1855851;75;20127;-81
2021/07/15 02:09:45;;;;;;;;;;;26.50;99.90;;;;;;1854902;75;20247;-81
2021/07/15 02:12:15;;;;;;;;;;;26.50;99.90;;;;;;1839038;77;20167;-80
2021/07/15 02:14:45;;;;;;;;;;;26.50;99.90;;;;;;1833223;77;20242;-81
2021/07/15 02:17:15;;;;;;;;;;;26.50;99.90;;;;;;1845856;77;20188;-81
2021/07/15 02:19:45;;;;;;;;;;;26.60;99.90;;;;;;1841154;77;20193;-80
2021/07/15 02:22:16;;;;;;;;;;;26.60;99.90;;;;;;1826862;77;20654;-79
2021/07/15 02:24:47;;;;;;;;;;;26.60;99.90;;;;;;1910741;74;20183;-81
2021/07/15 02:27:17;;;;;;;;;;;26.70;99.90;;;;;;1860349;77;20197;-80
2021/07/15 02:29:47;;;;;;;;;;;26.60;99.90;;;;;;1838280;77;20522;-80
2021/07/15 02:32:17;;;;;;;;;;;26.60;99.90;;;;;;1835976;77;20202;-81
2021/07/15 02:34:47;;;;;;;;;;;26.60;99.90;;;;;;1825689;77;20187;-80
2021/07/15 02:38:04;;;;;;;;;;;26.60;99.90;;;;;;1823462;77;20534;-81
2021/07/15 02:43:19;;;;;;;;;;;26.70;99.90;;;;;;1710404;80;20181;-80
2021/07/15 02:45:49;;;;;;;;;;;26.70;99.90;;;;;;1798275;78;20266;-79
2021/07/15 02:48:20;;;;;;;;;;;26.80;99.90;;;;;;1803766;78;20225;-80
2021/07/15 02:50:49;;;;;;;;;;;26.90;99.90;;;;;;1803391;78;20213;-82
2021/07/15 02:53:20;;;;;;;;;;;27.00;99.90;;;;;;1802952;78;20642;-81
2021/07/15 02:55:51;;;;;;;;;;;27.10;99.90;;;;;;1802381;78;20251;-82
2021/07/15 02:58:25;;;;;;;;;;;27.10;99.90;;;;;;1752247;80;20244;-83
2021/07/15 03:00:56;;;;;;;;;;;27.20;99.90;;;;;;1799655;78;20529;-82
2021/07/15 03:03:31;;;;;;;;;;;27.30;99.90;;;;;;1797112;78;20146;-81
2021/07/15 03:06:04;;;;;;;;;;;27.40;99.90;;;;;;1800898;78;20283;-79
2021/07/15 03:08:37;;;;;;;;;;;27.50;99.90;;;;;;1759036;80;20248;-78
2021/07/15 03:11:21;;;;;;;;;;;27.50;99.90;;;;;;1753253;80;20266;-78
2021/07/15 03:13:48;;;;;;;;;;;27.60;99.90;;;;;;1754416;82;20280;-79
2021/07/15 03:16:26;;;;;;;;;;;27.60;99.90;;;;;;1754152;80;20170;-78
2021/07/15 03:18:59;;;;;;;;;;;27.60;99.90;;;;;;1847544;77;20207;-79
2021/07/15 03:21:33;;;;;;;;;;;27.60;99.90;;;;;;1906716;74;20137;-78
2021/07/15 03:24:04;;;;;;;;;;;27.60;99.90;;;;;;1912274;74;20233;-79
2021/07/15 03:26:34;;;;;;;;;;;27.60;99.90;;;;;;1909194;74;20198;-79
2021/07/15 03:29:05;;;;;;;;;;;27.60;99.90;;;;;;1907963;75;20163;-79
2021/07/15 03:31:36;;;;;;;;;;;27.50;99.90;;;;;;1898465;75;20237;-77
2021/07/15 03:34:06;;;;;;;;;;;27.50;99.90;;;;;;1903667;75;20458;-80
2021/07/15 03:36:41;;;;;;;;;;;27.50;99.90;;;;;;1903414;73;20210;-80
2021/07/15 03:39:11;;;;;;;;;;;27.60;99.90;;;;;;1904273;73;20159;-78
2021/07/15 03:41:45;;;;;;;;;;;27.60;99.90;;;;;;1901192;75;20282;-81
2021/07/15 03:44:16;;;;;;;;;;;27.60;99.90;;;;;;1910788;75;20432;-79
2021/07/15 03:46:50;;;;;;;;;;;27.60;99.90;;;;;;1908553;73;20154;-79
2021/07/15 03:49:28;;;;;;;;;;;27.70;99.90;;;;;;1911143;74;20155;-78
2021/07/15 03:51:52;;;;;;;;;;;27.80;99.90;;;;;;1914241;74;20191;-78
2021/07/15 03:54:23;;;;;;;;;;;28.00;99.90;;;;;;1917711;74;20637;-79
2021/07/15 03:57:00;;;;;;;;;;;28.10;99.90;;;;;;1901972;74;20220;-79
2021/07/15 03:59:39;;;;;;;;;;;28.30;99.90;;;;;;1894715;74;20128;-79
2021/07/15 04:02:11;;;;;;;;;;;28.40;99.90;;;;;;1913441;74;20210;-79
2021/07/15 04:04:51;;;;;;;;;;;28.60;99.90;;;;;;1918096;74;20545;-76
2021/07/15 04:07:21;;;;;;;;;;;28.80;99.20;;;;;;1919217;74;20211;-76
2021/07/15 04:09:51;;;;;;;;;;;28.90;99.90;;;;;;1901613;74;20166;-79
2021/07/15 04:12:22;;;;;;;;;;;29.10;99.00;;;;;;1886460;75;20237;-78
2021/07/15 04:14:54;;;;;;;;;;;29.20;99.40;;;;;;1894617;74;20545;-81
2021/07/15 04:17:25;;;;;;;;;;;29.40;98.70;;;;;;1891861;74;20205;-80
2021/07/15 04:19:59;;;;;;;;;;;29.50;97.50;;;;;;1886696;76;20223;-81
2021/07/15 04:22:28;;;;;;;;;;;29.60;98.10;;;;;;1888160;75;20174;-79
2021/07/15 04:24:58;;;;;;;;;;;29.60;97.60;;;;;;1894714;75;20186;-80
2021/07/15 04:27:28;;;;;;;;;;;29.70;97.80;;;;;;1888798;74;20644;-78
2021/07/15 04:29:59;;;;;;;;;;;29.80;98.40;;;;;;1893868;74;20173;-79
2021/07/15 04:32:30;;;;;;;;;;;29.90;97.30;;;;;;1885046;74;20257;-79
2021/07/15 04:35:00;;;;;;;;;;;29.90;97.00;;;;;;1885014;74;20710;-78
2021/07/15 04:37:32;;;;;;;;;;;29.90;97.30;;;;;;1889449;75;20582;-78
2021/07/15 04:40:04;;;;;;;;;;;29.90;96.10;;;;;;1894414;75;20486;-79
2021/07/15 04:42:34;;;;;;;;;;;29.70;95.60;;;;;;1899763;74;20205;-79
2021/07/15 04:45:05;;;;;;;;;;;29.60;96.10;;;;;;1895163;74;20263;-77
2021/07/15 04:47:37;;;;;;;;;;;29.50;96.50;;;;;;1873276;75;20920;-79
2021/07/15 04:50:09;;;;;;;;;;;29.50;96.60;;;;;;1869850;75;20226;-79
2021/07/15 04:52:40;;;;;;;;;;;29.40;96.70;;;;;;1868333;75;20151;-79
2021/07/15 04:55:10;;;;;;;;;;;29.40;96.60;;;;;;1866607;77;20170;-79
2021/07/15 04:57:41;;;;;;;;;;;29.40;96.20;;;;;;1866477;75;20321;-79
2021/07/15 05:00:16;;;;;;;;;;;29.50;96.60;;;;;;1870472;75;20208;-78
2021/07/15 05:02:46;;;;;;;;;;;29.60;96.20;;;;;;1879716;75;20330;-78
2021/07/15 05:05:17;;;;;;;;;;;29.80;96.10;;;;;;1881679;75;20510;-80
2021/07/15 05:07:46;;;;;;;;;;;30.10;96.80;;;;;;1887088;74;20473;-78
2021/07/15 05:10:17;;;;;;;;;;;30.30;95.60;;;;;;1882487;75;20623;-79
2021/07/15 05:12:48;;;;;;;;;;;30.40;95.00;;;;;;1821875;78;20286;-79
2021/07/15 05:15:19;;;;;;;;;;;30.50;94.80;;;;;;1825086;78;20211;-78
2021/07/15 05:17:50;;;;;;;;;;;30.40;94.70;;;;;;1825047;78;20157;-79
2021/07/15 05:20:20;;;;;;;;;;;30.30;94.70;;;;;;1810383;78;20189;-79
2021/07/15 05:22:52;;;;;;;;;;;30.20;95.20;;;;;;1826608;77;20219;-80
2021/07/15 05:25:23;;;;;;;;;;;30.00;95.70;;;;;;1827137;78;20178;-78
2021/07/15 05:27:53;;;;;;;;;;;29.80;96.30;;;;;;1826986;78;20189;-79
2021/07/15 05:30:23;;;;;;;;;;;29.50;96.50;;;;;;1829770;78;20256;-79
2021/07/15 05:32:53;;;;;;;;;;;29.20;96.90;;;;;;1831551;78;20208;-80
2021/07/15 05:35:22;;;;;;;;;;;28.90;97.50;;;;;;1811450;78;20213;-78
2021/07/15 05:37:52;;;;;;;;;;;28.60;97.50;;;;;;1817193;78;20163;-78
2021/07/15 05:40:22;;;;;;;;;;;28.40;97.80;;;;;;1825459;77;20444;-80
2021/07/15 05:42:52;;;;;;;;;;;28.20;98.30;;;;;;1808204;78;20272;-79
2021/07/15 05:45:21;;;;;;;;;;;28.10;98.80;;;;;;1822191;77;20207;-79
2021/07/15 05:47:52;;;;;;;;;;;28.00;99.30;;;;;;1882663;75;20209;-79
2021/07/15 05:50:24;;;;;;;;;;;27.90;99.90;;;;;;1879565;75;20130;-79
2021/07/15 05:52:53;;;;;;;;;;;28.00;99.90;;;;;;1879976;76;20178;-79
2021/07/15 05:55:24;;;;;;;;;;;28.00;99.90;;;;;;1882290;76;20183;-79
2021/07/15 05:57:54;;;;;;;;;;;28.10;99.90;;;;;;1882304;74;20216;-80
2021/07/15 06:00:28;;;;;;;;;;;28.20;99.90;;;;;;1880306;76;20444;-78
2021/07/15 06:03:05;;;;;;;;;;;28.30;99.90;;;;;;1882985;76;20437;-79
2021/07/15 06:05:33;;;;;;;;;;;28.40;99.90;;;;;;1881623;76;20178;-78
2021/07/15 06:08:07;;;;;;;;;;;28.50;99.90;;;;;;1854923;76;20188;-79
2021/07/15 06:10:41;;;;;;;;;;;28.60;99.90;;;;;;1881926;75;20221;-79
2021/07/15 06:13:12;;;;;;;;;;;28.70;99.70;;;;;;1883084;76;20170;-77
2021/07/15 06:15:54;;;;;;;;;;;28.80;99.30;;;;;;1880746;76;20190;-79
2021/07/15 06:18:21;;;;;;;;;;;28.70;99.70;;;;;;1875553;75;20696;-79
2021/07/15 06:20:56;;;;;;;;;;;28.80;99.40;;;;;;1877823;76;20642;-81
2021/07/15 06:23:26;;;;;;;;;;;28.80;99.30;;;;;;1883593;75;20243;-80
2021/07/15 06:26:02;;;;;;;;;;;28.80;99.30;;;;;;1881958;76;20191;-80
2021/07/15 06:28:35;;;;;;;;;;;28.80;99.70;;;;;;1882545;75;20158;-79
2021/07/15 06:31:08;;;;;;;;;;;28.70;99.50;;;;;;1870317;75;20231;-78
2021/07/15 06:33:38;;;;;;;;;;;28.70;99.50;;;;;;1887708;74;20229;-79
2021/07/15 06:36:08;;;;;;;;;;;28.70;99.50;;;;;;1875469;75;20176;-76
2021/07/15 06:38:39;;;;;;;;;;;28.80;99.40;;;;;;1881237;75;20390;-78
2021/07/15 06:41:10;;;;;;;;;;;28.80;99.40;;;;;;1882858;74;20291;-79
2021/07/15 06:43:41;;;;;;;;;;;29.00;99.20;;;;;;1882910;75;20202;-79
2021/07/15 06:46:11;;;;;;;;;;;29.00;99.20;;;;;;1883298;75;20402;-77
2021/07/15 06:48:41;;;;;;;;;;;29.10;98.90;;;;;;1850790;75;20203;-78
2021/07/15 06:51:11;;;;;;;;;;;29.20;98.60;;;;;;1782346;80;20166;-78
2021/07/15 06:53:40;;;;;;;;;;;29.20;98.60;;;;;;1792714;80;20423;-78
2021/07/15 06:56:10;;;;;;;;;;;29.20;98.10;;;;;;1789519;80;20231;-78
2021/07/15 06:58:40;;;;;;;;;;;29.30;97.20;;;;;;1787068;80;20198;-78
2021/07/15 07:01:09;;;;;;;;;;;29.20;97.60;;;;;;1783972;80;20392;-79
2021/07/15 07:03:44;;;;;;;;;;;29.20;98.40;;;;;;1786474;80;20188;-79
2021/07/15 07:06:15;;;;;;;;;;;29.00;98.60;;;;;;1790390;80;20676;-78
2021/07/15 07:08:44;;;;;;;;;;;28.90;98.80;;;;;;1786985;80;20136;-78
2021/07/15 07:11:15;;;;;;;;;;;28.70;99.00;;;;;;1792367;80;20160;-78
2021/07/15 07:13:48;;;;;;;;;;;28.60;99.20;;;;;;1784460;80;20190;-78
2021/07/15 07:16:19;;;;;;;;;;;28.50;99.30;;;;;;1789460;80;20309;-78
2021/07/15 07:18:55;;;;;;;;;;;28.40;99.40;;;;;;1785088;80;20618;-77
2021/07/15 07:21:25;;;;;;;;;;;28.30;99.60;;;;;;1802707;78;20255;-78
2021/07/15 07:23:56;;;;;;;;;;;28.20;99.70;;;;;;1800932;78;20215;-78
2021/07/15 07:26:38;;;;;;;;;;;;;;;;;;;;;
2021/07/15 07:29:05;;;;;;;;;;;28.20;99.90;;;;;;1829477;78;20183;-78
2021/07/15 07:31:37;;;;;;;;;;;28.10;99.90;;;;;;1836604;76;20427;-79
2021/07/15 07:34:07;;;;;;;;;;;28.10;99.90;;;;;;1830742;78;20503;-78
2021/07/15 07:39:56;;;;;;;;;;;28.00;99.90;;;;;;1726965;81;20564;-78
2021/07/15 07:42:37;;;;;;;;;;;28.00;99.90;;;;;;1728340;82;20276;-78
2021/07/15 07:45:26;;;;;;;;;;;28.00;99.90;;;;;;1689501;83;20548;-79
2021/07/15 07:48:06;;;;;;;;;;;28.00;99.90;;;;;;1702909;82;20226;-78
2021/07/15 07:54:07;;;;;;;;;;;27.90;99.90;;;;;;1725655;82;20470;-76
2021/07/15 07:56:38;;;;;;;;;;;27.90;99.90;;;;;;1730371;82;20214;-77
2021/07/15 07:59:11;;;;;;;;;;;27.80;99.90;;;;;;1721137;82;20531;-78
2021/07/15 08:01:44;;;;;;;;;;;27.70;99.90;;;;;;1727254;81;20198;-78
2021/07/15 08:04:13;;;;;;;;;;;27.70;99.90;;;;;;1732665;82;20315;-77
2021/07/15 08:06:45;;;;;;;;;;;27.60;99.90;;;;;;1723955;82;20331;-79
2021/07/15 08:09:36;;;;;;;;;;;27.50;99.90;;;;;;1729131;82;20257;-79
2021/07/15 08:11:54;;;;;;;;;;;27.50;99.90;;;;;;1776331;78;20376;-79
2021/07/15 08:14:23;;;;;;;;;;;27.50;99.90;;;;;;1817250;77;20223;-79
2021/07/15 08:16:57;;;;;;;;;;;27.50;99.90;;;;;;1823039;77;20209;-77
2021/07/15 08:19:24;;;;;;;;;;;27.50;99.90;;;;;;1819451;77;20203;-79
2021/07/15 08:21:54;;;;;;;;;;;27.40;99.90;;;;;;1833126;78;20164;-77
2021/07/15 08:24:55;;;;;;;;;;;27.40;99.90;;;;;;1823361;77;20217;-76
2021/07/15 08:27:26;;;;;;;;;;;27.40;99.90;;;;;;1849454;76;20534;-77
2021/07/15 08:29:56;;;;;;;;;;;27.40;99.90;;;;;;1845437;77;20396;-77
2021/07/15 08:32:26;;;;;;;;;;;27.40;99.90;;;;;;1832366;77;20461;-77
2021/07/15 08:34:56;;;;;;;;;;;27.40;99.90;;;;;;1842366;77;20236;-77
2021/07/15 08:37:25;;;;;;;;;;;27.40;99.90;;;;;;1840455;77;20219;-77
2021/07/15 08:39:55;;;;;;;;;;;27.40;99.90;;;;;;1843818;76;20281;-76
2021/07/15 08:42:25;;;;;;;;;;;27.30;99.90;;;;;;1845467;76;20206;-76
2021/07/15 08:44:55;;;;;;;;;;;27.30;99.90;;;;;;1847795;77;20211;-76
2021/07/15 08:47:25;;;;;;;;;;;27.30;99.90;;;;;;1848717;76;20202;-76
2021/07/15 08:49:56;;;;;;;;;;;27.20;99.90;;;;;;1843498;76;20201;-76
2021/07/15 08:52:26;;;;;;;;;;;27.10;99.90;;;;;;1839941;76;20576;-76
2021/07/15 08:55:05;;;;;;;;;;;27.00;99.90;;;;;;1837663;77;20453;-76
2021/07/15 08:57:28;;;;;;;;;;;27.00;99.90;;;;;;1839036;77;20164;-77
2021/07/15 08:59:57;;;;;;;;;;;27.00;99.90;;;;;;1819172;77;20286;-78
2021/07/15 09:02:27;;;;;;;;;;;27.00;99.90;;;;;;1845701;77;20187;-76
2021/07/15 09:04:59;;;;;;;;;;;26.90;99.90;;;;;;1841202;76;20450;-75
2021/07/15 09:07:29;;;;;;;;;;;26.90;99.90;;;;;;1839576;77;20206;-76
2021/07/15 09:09:59;;;;;;;;;;;26.90;99.90;;;;;;1836281;76;20214;-76
2021/07/15 09:12:29;;;;;;;;;;;26.90;99.90;;;;;;1842206;77;20528;-76
2021/07/15 09:14:59;;;;;;;;;;;26.90;99.90;;;;;;1838267;77;20498;-76
2021/07/15 09:17:30;;;;;;;;;;;26.90;99.90;;;;;;1836950;77;20270;-76
2021/07/15 09:20:00;;;;;;;;;;;26.90;99.90;;;;;;1841794;77;20182;-76
2021/07/15 09:22:30;;;;;;;;;;;26.90;99.90;;;;;;1833657;77;20243;-76
2021/07/15 09:25:01;;;;;;;;;;;26.90;99.90;;;;;;1838266;76;20166;-76
2021/07/15 09:27:31;;;;;;;;;;;26.90;99.90;;;;;;1840841;77;20207;-76
2021/07/15 09:30:02;;;;;;;;;;;26.90;99.90;;;;;;1845509;76;20285;-77
2021/07/15 09:32:31;;;;;;;;;;;26.90;99.90;;;;;;1856140;77;20136;-77
2021/07/15 09:35:32;;;;;;;;;;;27.00;99.90;;;;;;1851933;77;20233;-76
2021/07/15 09:38:06;;;;;;;;;;;27.00;99.90;;;;;;1858205;75;20235;-77
2021/07/15 09:43:59;;;;;;;;;;;26.90;99.90;;;;;;1732592;81;20469;-75
2021/07/15 09:46:31;;;;;;;;;;;26.90;99.90;;;;;;1723724;83;20195;-75
2021/07/15 09:49:25;;;;;;;;;;;26.90;99.90;;;;;;1692260;84;20138;-75
2021/07/15 09:52:09;;;;;;;;;;;26.80;99.90;;;;;;1746344;80;20219;-79
2021/07/15 09:54:48;;;;;;;;;;;26.80;99.90;;;;;;1756812;81;20277;-75
2021/07/15 09:57:19;;;;;;;;;;;26.80;99.90;;;;;;1753254;81;20237;-75
2021/07/15 09:59:50;;;;;;;;;;;26.80;99.90;;;;;;1751988;81;20189;-73
2021/07/15 10:02:24;;;;;;;;;;;26.90;99.90;;;;;;1735594;80;20192;-76
2021/07/15 10:04:58;;;;;;;;;;;26.90;99.90;;;;;;1754417;81;20180;-78
2021/07/15 10:07:28;;;;;;;;;;;26.90;99.90;;;;;;1746945;80;20273;-79
2021/07/15 10:09:59;;;;;;;;;;;26.90;99.90;;;;;;1753718;82;20389;-78
2021/07/15 10:12:28;;;;;;;;;;;26.80;99.90;;;;;;1753931;82;20255;-79
2021/07/15 10:14:59;;;;;;;;;;;26.90;99.90;;;;;;1747894;80;20232;-79
2021/07/15 10:17:33;;;;;;;;;;;26.90;99.90;;;;;;1751539;80;20564;-78
2021/07/15 10:20:07;;;;;;;;;;;26.90;99.90;;;;;;1761355;77;20261;-79
2021/07/15 10:22:39;;;;;;;;;;;26.90;99.90;;;;;;1878241;74;20459;-79
2021/07/15 10:25:11;;;;;;;;;;;26.90;99.90;;;;;;1911486;74;20351;-77
2021/07/15 10:27:47;;;;;;;;;;;26.80;99.90;;;;;;1885677;74;20189;-81
2021/07/15 10:30:21;;;;;;;;;;;26.80;99.90;;;;;;1878348;76;20277;-80
2021/07/15 10:32:53;;;;;;;;;;;26.70;99.90;;;;;;1833551;77;20159;-78
2021/07/15 10:35:27;;;;;;;;;;;26.80;99.90;;;;;;1873148;76;20228;-80
2021/07/15 10:38:03;;;;;;;;;;;26.70;99.90;;;;;;1885948;75;20256;-81
2021/07/15 10:40:34;;;;;;;;;;;26.80;99.90;;;;;;1852241;76;20245;-82
2021/07/15 10:46:21;;;;;;;;;;;26.90;99.90;;;;;;1828806;77;20258;-80
2021/07/15 10:48:55;;;;;;;;;;;26.90;99.90;;;;;;1828001;76;20192;-80
2021/07/15 10:49:38;;;;;;;;;;;26.80;99.90;;;;;;1843864;76;20207;-79
2021/07/15 10:51:25;;;;;;;;;;;26.90;99.90;;;;;;1844119;77;20183;-79
2021/07/15 10:53:55;;;;;;;;;;;26.90;99.90;;;;;;1852610;77;20188;-79
2021/07/15 10:56:25;;;;;;;;;;;26.90;99.90;;;;;;1850807;77;20136;-79
2021/07/15 10:58:56;;;;;;;;;;;26.90;99.90;;;;;;1847504;77;20195;-78
2021/07/15 11:01:28;;;;;;;;;;;26.90;99.90;;;;;;1832806;77;20211;-77
2021/07/15 11:03:59;;;;;;;;;;;26.90;99.90;;;;;;1795908;79;20168;-80
2021/07/15 11:06:30;;;;;;;;;;;26.80;99.90;;;;;;1788326;80;20231;-78
2021/07/15 11:09:02;;;;;;;;;;;26.90;99.90;;;;;;1789260;78;20171;-79
2021/07/15 11:11:32;;;;;;;;;;;26.80;99.90;;;;;;1790382;80;20254;-79
2021/07/15 11:14:02;;;;;;;;;;;26.80;99.90;;;;;;1796388;80;20236;-79
2021/07/15 11:16:33;;;;;;;;;;;26.80;99.90;;;;;;1816052;78;20220;-78
2021/07/15 11:19:06;;;;;;;;;;;26.90;99.90;;;;;;1776578;80;20418;-79
2021/07/15 11:21:35;;;;;;;;;;;26.90;99.90;;;;;;1792315;80;20466;-78
2021/07/15 11:24:06;;;;;;;;;;;26.90;99.90;;;;;;1788869;78;20181;-77
2021/07/15 11:26:38;;;;;;;;;;;26.90;99.90;;;;;;1793451;80;20509;-78
2021/07/15 11:29:09;;;;;;;;;;;26.90;99.90;;;;;;1788592;80;20427;-81
2021/07/15 11:31:40;;;;;;;;;;;26.80;99.90;;;;;;1773487;80;20166;-78
2021/07/15 11:34:10;;;;;;;;;;;26.80;99.90;;;;;;1782767;80;20578;-81
2021/07/15 11:36:40;;;;;;;;;;;26.80;99.90;;;;;;1787731;80;20304;-79
2021/07/15 11:39:10;;;;;;;;;;;26.70;99.90;;;;;;1775442;78;20182;-79
2021/07/15 11:41:41;;;;;;;;;;;26.80;99.90;;;;;;1785154;78;20238;-78
2021/07/15 11:44:16;;;;;;;;;;;26.70;99.90;;;;;;1780163;80;20198;-78
2021/07/15 11:46:42;;;;;;;;;;;26.70;99.90;;;;;;1785472;80;20217;-77
2021/07/15 11:49:25;;;;;;;;;;;26.60;99.90;;;;;;1767717;81;20179;-79
2021/07/15 11:51:46;;;;;;;;;;;26.60;99.90;;;;;;1826738;77;20513;-77
2021/07/15 11:54:24;;;;;;;;;;;26.70;99.90;;;;;;1847379;77;20206;-78
2021/07/15 11:56:54;;;;;;;;;;;26.70;99.90;;;;;;1824484;77;20236;-78
2021/07/15 11:59:26;;;;;;;;;;;26.70;99.90;;;;;;1826715;77;20179;-78
2021/07/15 12:01:57;;;;;;;;;;;26.70;99.90;;;;;;1824929;78;20229;-76
2021/07/15 12:04:27;;;;;;;;;;;26.70;99.90;;;;;;1821838;77;20206;-78
2021/07/15 12:06:57;;;;;;;;;;;26.70;99.90;;;;;;1825281;77;20218;-78
2021/07/15 12:09:28;;;;;;;;;;;26.70;99.90;;;;;;1822906;78;20166;-87
2021/07/15 12:11:59;;;;;;;;;;;26.80;99.90;;;;;;1823733;78;20206;-87
2021/07/15 12:14:30;;;;;;;;;;;26.80;99.90;;;;;;1826396;77;20179;-86
2021/07/15 12:17:00;;;;;;;;;;;26.80;99.90;;;;;;1827300;78;20136;-87
2021/07/15 12:19:30;;;;;;;;;;;26.80;99.90;;;;;;1826970;78;20190;-89
2021/07/15 12:21:59;;;;;;;;;;;26.70;99.90;;;;;;1823391;77;20235;-88
2021/07/15 12:24:32;;;;;;;;;;;26.70;99.90;;;;;;1825128;78;20194;-88
2021/07/15 12:27:01;;;;;;;;;;;26.60;99.90;;;;;;1819704;77;20210;-88
2021/07/15 12:29:33;;;;;;;;;;;26.60;99.90;;;;;;1817208;78;20183;-88
2021/07/15 12:32:03;;;;;;;;;;;26.60;99.90;;;;;;1806294;77;20259;-89
2021/07/15 12:34:37;;;;;;;;;;;26.60;99.90;;;;;;1826457;77;20185;-87
2021/07/15 12:37:08;;;;;;;;;;;26.60;99.90;;;;;;1824193;77;20198;-88
2021/07/15 12:39:49;;;;;;;;;;;;;;;;;;;;;
2021/07/15 12:42:39;;;;;;;;;;;;;;;;;;;;;
2021/07/15 12:45:36;;;;;;;;;;;26.50;99.90;;;;;;1807423;76;20203;-89
2021/07/15 12:48:40;;;;;;;;;;;;;;;;;;;;;
2021/07/15 12:51:12;;;;;;;;;;;26.50;99.90;;;;;;1789826;77;20177;-88
2021/07/15 12:54:12;;;;;;;;;;;26.50;99.90;;;;;;1845944;77;20279;-85
2021/07/15 12:56:46;;;;;;;;;;;26.50;99.90;;;;;;1835082;78;20169;-86
2021/07/15 12:59:35;;;;;;;;;;;26.40;99.90;;;;;;1802177;78;20213;-87
2021/07/15 13:02:07;;;;;;;;;;;26.40;99.90;;;;;;1832103;78;20528;-88
2021/07/15 13:04:42;;;;;;;;;;;26.30;99.90;;;;;;1810090;78;20220;-87
2021/07/15 13:07:22;;;;;;;;;;;26.30;99.90;;;;;;1828074;78;20249;-87
2021/07/15 13:10:03;;;;;;;;;;;26.30;99.90;;;;;;1832255;78;20209;-87
2021/07/15 13:15:05;;;;;;;;;;;26.30;99.90;;;;;;1895151;74;20134;-87
2021/07/15 13:17:34;;;;;;;;;;;26.30;99.90;;;;;;1897714;74;20252;-87
2021/07/15 13:20:06;;;;;;;;;;;26.30;99.90;;;;;;1895470;75;20259;-86
2021/07/15 13:22:40;;;;;;;;;;;26.30;99.90;;;;;;1891947;74;20132;-88
2021/07/15 13:25:18;;;;;;;;;;;26.30;99.90;;;;;;1900132;74;20169;-88
2021/07/15 13:27:49;;;;;;;;;;;26.30;99.90;;;;;;1898769;75;20378;-87
2021/07/15 13:30:22;;;;;;;;;;;26.30;99.90;;;;;;1894161;75;20161;-88
2021/07/15 13:32:58;;;;;;;;;;;26.30;99.90;;;;;;1897648;74;20130;-87
2021/07/15 13:35:30;;;;;;;;;;;26.30;99.90;;;;;;1752627;80;20199;-90
2021/07/15 13:38:01;;;;;;;;;;;26.20;99.90;;;;;;1742144;81;20497;-89
2021/07/15 13:40:32;;;;;;;;;;;26.20;99.90;;;;;;1744075;81;20249;-89
2021/07/15 13:43:03;;;;;;;;;;;26.20;99.90;;;;;;1762154;81;20586;-87
2021/07/15 13:45:33;;;;;;;;;;;26.10;99.90;;;;;;1763595;81;20248;-87
2021/07/15 13:48:04;;;;;;;;;;;26.10;99.90;;;;;;1762883;81;20244;-87
2021/07/15 13:50:34;;;;;;;;;;;26.10;99.90;;;;;;1753096;81;20298;-87
2021/07/15 13:53:04;;;;;;;;;;;26.10;99.90;;;;;;1750910;81;20229;-86
2021/07/15 13:55:45;;;;;;;;;;;26.10;99.90;;;;;;1690901;84;20298;-88
2021/07/15 13:58:16;;;;;;;;;;;26.10;99.90;;;;;;1690269;84;20227;-88
2021/07/15 14:00:59;;;;;;;;;;;26.00;99.90;;;;;;1802216;77;20522;-88
2021/07/15 14:03:46;;;;;;;;;;;26.10;99.90;;;;;;1833103;77;20570;-88
2021/07/15 14:06:16;;;;;;;;;;;26.10;99.90;;;;;;1836500;77;20307;-88
2021/07/15 14:08:48;;;;;;;;;;;26.00;99.90;;;;;;1838550;77;20249;-87
2021/07/15 14:11:18;;;;;;;;;;;26.00;99.90;;;;;;1837570;74;21068;-87
2021/07/15 14:14:02;;;;;;;;;;;;;;;;;;;;;
2021/07/15 14:17:20;;;;;;;;;;;26.00;99.90;;;;;;1716755;83;20259;-88
2021/07/15 14:19:28;;;;;;;;;;;26.10;99.90;;;;;;1728188;80;20222;-86
2021/07/15 14:21:59;;;;;;;;;;;26.00;99.90;;;;;;1775616;79;20199;-86
2021/07/15 14:24:29;;;;;;;;;;;26.10;99.90;;;;;;1859167;75;20213;-85
2021/07/15 14:27:01;;;;;;;;;;;26.00;99.90;;;;;;1894311;74;20579;-89
2021/07/15 14:29:32;;;;;;;;;;;26.00;99.90;;;;;;1895477;74;20176;-86
2021/07/15 14:32:06;;;;;;;;;;;26.00;99.90;;;;;;1901900;75;20180;-87
2021/07/15 14:34:37;;;;;;;;;;;26.00;99.90;;;;;;1899057;74;20168;-87
2021/07/15 14:37:07;;;;;;;;;;;26.00;99.90;;;;;;1902670;75;20203;-86
2021/07/15 14:39:44;;;;;;;;;;;26.00;99.90;;;;;;1886703;75;20259;-88
2021/07/15 14:48:42;;;;;;;;;;;26.00;99.90;;;;;;1985057;71;20345;-89
2021/07/15 14:51:10;;;;;;;;;;;26.00;99.90;;;;;;1957315;72;20209;-87
2021/07/15 14:53:40;;;;;;;;;;;26.00;99.90;;;;;;1966076;72;20135;-88
2021/07/15 14:56:15;;;;;;;;;;;26.00;99.90;;;;;;1960881;72;20200;-87
2021/07/15 14:58:41;;;;;;;;;;;26.10;99.90;;;;;;1956332;72;20148;-87
2021/07/15 15:01:14;;;;;;;;;;;26.10;99.90;;;;;;1957411;72;20152;-88
2021/07/15 15:03:43;;;;;;;;;;;26.10;99.90;;;;;;1932942;72;20176;-87
2021/07/15 15:06:21;;;;;;;;;;;26.00;99.90;;;;;;1965830;72;20218;-86
2021/07/15 15:08:51;;;;;;;;;;;26.10;99.90;;;;;;1921263;72;20218;-88
2021/07/15 15:11:31;;;;;;;;;;;26.00;99.90;;;;;;1953224;72;20554;-87
2021/07/15 15:13:57;;;;;;;;;;;26.10;99.90;;;;;;1979464;72;20753;-89